createdAt,value
2023-04-20T00:02:20.001Z,31.17
2023-04-20T00:05:09.509Z,34.20
2023-04-20T00:07:58.793Z,31.37
2023-04-20T00:10:47.407Z,32.33
2023-04-20T00:13:35.848Z,31.53
2023-04-20T00:16:24.308Z,32.53
2023-04-20T00:19:14.133Z,32.63
2023-04-20T00:22:02.558Z,31.43
2023-04-20T00:24:50.933Z,33.27
2023-04-20T00:27:39.291Z,31.40
2023-04-20T00:30:27.936Z,31.40
2023-04-20T00:33:16.350Z,32.37
2023-04-20T00:36:06.351Z,31.63
2023-04-20T00:38:54.708Z,32.13
2023-04-20T00:41:43.158Z,31.33
2023-04-20T00:44:31.601Z,32.33
2023-04-20T00:47:20.045Z,30.63
2023-04-20T00:50:09.853Z,31.97
2023-04-20T00:53:01.919Z,31.23
2023-04-20T00:55:51.850Z,31.63
2023-04-20T00:58:40.484Z,32.50
2023-04-20T01:01:29.144Z,31.40
2023-04-20T01:04:17.801Z,32.73
2023-04-20T01:07:06.226Z,31.27
2023-04-20T01:09:56.249Z,32.40
2023-04-20T01:12:45.702Z,32.83
2023-04-20T01:15:35.238Z,32.43
2023-04-20T01:18:24.015Z,32.00
2023-04-20T01:21:13.421Z,30.10
2023-04-20T01:24:03.499Z,30.33
2023-04-20T01:26:54.135Z,31.80
2023-04-20T01:29:42.495Z,32.97
2023-04-20T01:32:31.760Z,33.50
2023-04-20T01:35:20.948Z,33.00
2023-04-20T01:38:09.432Z,32.10
2023-04-20T01:40:59.767Z,32.70
2023-04-20T01:43:49.196Z,31.40
2023-04-20T01:46:39.148Z,31.80
2023-04-20T01:49:28.769Z,30.80
2023-04-20T01:52:17.129Z,34.60
2023-04-20T01:55:06.222Z,31.63
2023-04-20T01:57:55.957Z,32.67
2023-04-20T02:00:45.516Z,31.90
2023-04-20T02:03:34.090Z,31.30
2023-04-20T02:06:22.674Z,32.77
2023-04-20T02:09:11.159Z,31.73
2023-04-20T02:11:59.600Z,33.03
2023-04-20T02:14:49.349Z,31.60
2023-04-20T02:17:38.098Z,30.80
2023-04-20T02:20:26.566Z,33.43
2023-04-20T02:23:15.593Z,33.30
2023-04-20T02:26:03.971Z,31.00
2023-04-20T02:28:52.350Z,33.10
2023-04-20T02:31:42.170Z,35.00
2023-04-20T02:34:30.704Z,33.17
2023-04-20T02:37:19.107Z,33.70
2023-04-20T02:40:10.357Z,31.73
2023-04-20T02:42:58.762Z,33.20
2023-04-20T02:45:48.523Z,34.50
2023-04-20T02:48:38.941Z,34.20
2023-04-20T02:51:27.465Z,33.30
2023-04-20T02:54:16.574Z,34.50
2023-04-20T02:57:05.811Z,34.47
2023-04-20T02:59:54.862Z,32.73
2023-04-20T03:02:48.165Z,34.20
2023-04-20T03:05:38.019Z,35.40
2023-04-20T03:08:26.927Z,34.63
2023-04-20T03:11:17.291Z,34.70
2023-04-20T03:14:06.331Z,32.93
2023-04-20T03:16:55.587Z,35.97
2023-04-20T03:19:43.965Z,36.27
2023-04-20T03:22:33.705Z,34.07
2023-04-20T03:25:23.984Z,34.73
2023-04-20T03:28:20.471Z,37.10
2023-04-20T03:31:08.993Z,36.17
2023-04-20T03:33:57.458Z,35.43
2023-04-20T03:36:45.780Z,33.93
2023-04-20T03:39:35.407Z,34.70
2023-04-20T03:42:25.962Z,40.23
2023-04-20T03:45:16.153Z,34.57
2023-04-20T03:48:04.970Z,33.80
2023-04-20T03:50:53.298Z,34.90
2023-04-20T03:53:41.716Z,35.13
2023-04-20T03:56:34.786Z,34.60
2023-04-20T03:59:23.377Z,34.07
2023-04-20T04:02:13.604Z,36.90
2023-04-20T04:05:05.322Z,34.47
2023-04-20T04:07:53.854Z,35.67
2023-04-20T04:10:42.142Z,33.20
2023-04-20T04:13:34.436Z,32.57
2023-04-20T04:16:24.298Z,33.73
2023-04-20T04:19:12.722Z,32.63
2023-04-20T04:22:01.372Z,35.93
2023-04-20T04:24:54.514Z,34.47
2023-04-20T04:27:42.911Z,35.53
2023-04-20T04:30:32.967Z,33.10
2023-04-20T04:33:21.947Z,31.40
2023-04-20T04:36:12.130Z,32.83
2023-04-20T04:39:00.919Z,34.60
2023-04-20T04:41:49.571Z,34.17
2023-04-20T04:44:47.215Z,32.57
2023-04-20T04:47:43.879Z,32.73
2023-04-20T04:50:32.282Z,32.23
2023-04-20T04:53:20.630Z,33.00
2023-04-20T04:56:09.244Z,34.33
2023-04-20T04:58:57.613Z,33.00
2023-04-20T05:01:46.099Z,30.07
2023-04-20T05:04:36.004Z,31.80
2023-04-20T05:07:24.829Z,37.00
2023-04-20T05:10:14.731Z,32.67
2023-04-20T05:13:03.565Z,31.47
2023-04-20T05:15:51.926Z,32.13
2023-04-20T05:18:40.345Z,32.10
2023-04-20T05:21:30.049Z,32.93
2023-04-20T05:24:19.506Z,32.10
2023-04-20T05:27:07.907Z,36.63
2023-04-20T05:29:58.383Z,34.10
2023-04-20T05:32:52.898Z,32.57
2023-04-20T05:35:41.312Z,32.43
2023-04-20T05:38:31.030Z,32.50
2023-04-20T05:41:19.881Z,31.97
2023-04-20T05:44:08.217Z,31.60
2023-04-20T05:46:56.721Z,32.57
2023-04-20T05:49:46.089Z,31.37
2023-04-20T05:52:34.486Z,32.80
2023-04-20T05:55:24.420Z,31.80
2023-04-20T05:58:12.913Z,31.30
2023-04-20T06:01:02.388Z,32.67
2023-04-20T06:03:51.280Z,32.43
2023-04-20T06:06:39.846Z,32.50
2023-04-20T06:09:28.162Z,33.93
2023-04-20T06:12:17.819Z,32.33
2023-04-20T06:15:08.506Z,31.30
2023-04-20T06:17:57.056Z,35.30
2023-04-20T06:20:46.219Z,31.47
2023-04-20T06:23:34.831Z,32.33
2023-04-20T06:26:23.379Z,32.50
2023-04-20T06:29:13.118Z,32.30
2023-04-20T06:32:01.499Z,33.00
2023-04-20T06:34:50.601Z,33.87
2023-04-20T06:37:40.305Z,31.77
2023-04-20T06:40:28.962Z,31.67
2023-04-20T06:43:17.416Z,31.60
2023-04-20T06:46:07.254Z,31.10
2023-04-20T06:48:55.550Z,32.00
2023-04-20T06:51:43.948Z,30.40
2023-04-20T06:54:32.446Z,31.83
2023-04-20T06:57:20.880Z,31.20
2023-04-20T07:00:10.398Z,31.03
2023-04-20T07:03:00.163Z,32.17
2023-04-20T07:05:48.584Z,32.97
2023-04-20T07:08:36.920Z,31.70
2023-04-20T07:11:25.573Z,30.30
2023-04-20T07:14:13.901Z,30.90
2023-04-20T07:17:02.256Z,31.00
2023-04-20T07:19:52.554Z,31.43
2023-04-20T07:22:40.980Z,31.30
2023-04-20T07:25:31.454Z,32.73
2023-04-20T07:28:19.868Z,31.10
2023-04-20T07:31:08.185Z,32.17
2023-04-20T07:33:56.547Z,31.63
2023-04-20T07:36:46.235Z,33.10
2023-04-20T07:39:34.700Z,31.67
2023-04-20T07:42:23.162Z,31.20
2023-04-20T07:45:12.408Z,32.57
2023-04-20T07:48:01.588Z,34.77
2023-04-20T07:50:50.010Z,32.30
2023-04-20T07:53:39.835Z,31.90
2023-04-20T07:56:28.172Z,31.33
2023-04-20T07:59:16.788Z,35.90
2023-04-20T08:02:05.804Z,32.60
2023-04-20T08:04:54.745Z,32.83
2023-04-20T08:07:43.203Z,36.07
2023-04-20T08:10:32.913Z,33.63
2023-04-20T08:13:21.252Z,32.60
2023-04-20T08:16:09.799Z,31.13
2023-04-20T08:18:58.148Z,31.40
2023-04-20T08:21:46.524Z,31.03
2023-04-20T08:24:34.964Z,31.63
2023-04-20T08:27:24.731Z,31.50
2023-04-20T08:30:13.671Z,32.50
2023-04-20T08:33:02.056Z,32.27
2023-04-20T08:35:51.660Z,30.80
2023-04-20T08:38:40.111Z,32.00
2023-04-20T08:41:28.624Z,32.37
2023-04-20T08:44:18.565Z,32.37
2023-04-20T08:47:07.485Z,30.30
2023-04-20T08:49:56.724Z,31.23
2023-04-20T08:52:45.136Z,35.17
2023-04-20T08:55:34.071Z,30.97
2023-04-20T08:58:22.638Z,31.17
2023-04-20T09:01:17.506Z,29.53
2023-04-20T09:04:18.008Z,31.30
2023-04-20T09:07:16.502Z,30.90
2023-04-20T09:10:05.266Z,30.13
2023-04-20T09:12:54.349Z,31.13
2023-04-20T09:15:42.704Z,29.80
2023-04-20T09:18:32.376Z,30.67
2023-04-20T09:21:20.705Z,29.13
2023-04-20T09:24:09.586Z,28.50
2023-04-20T09:26:57.955Z,28.13
2023-04-20T09:29:46.450Z,30.60
2023-04-20T09:32:35.681Z,29.43
2023-04-20T09:35:25.690Z,27.70
2023-04-20T09:38:17.287Z,31.03
2023-04-20T09:41:07.581Z,29.23
2023-04-20T09:43:55.969Z,28.90
2023-04-20T09:46:44.857Z,29.23
2023-04-20T09:49:33.325Z,27.30
2023-04-20T09:52:24.188Z,27.73
2023-04-20T09:55:12.548Z,28.30
2023-04-20T09:58:03.504Z,28.40
2023-04-20T10:00:51.938Z,27.63
2023-04-20T10:03:42.879Z,28.53
2023-04-20T10:06:33.458Z,29.50
2023-04-20T10:09:26.048Z,29.77
2023-04-20T10:12:14.510Z,26.40
2023-04-20T10:15:02.904Z,26.50
2023-04-20T10:17:52.194Z,26.93
2023-04-20T10:20:40.580Z,26.10
2023-04-20T10:23:29.199Z,28.10
2023-04-20T10:26:18.931Z,28.87
2023-04-20T10:29:08.166Z,28.43
2023-04-20T10:31:56.871Z,26.90
2023-04-20T10:34:45.196Z,29.57
2023-04-20T10:37:33.621Z,25.90
2023-04-20T10:40:27.114Z,27.13
2023-04-20T10:43:23.392Z,27.70
2023-04-20T10:46:15.922Z,28.83
2023-04-20T10:49:04.310Z,30.23
2023-04-20T10:51:55.465Z,27.60
2023-04-20T10:54:43.798Z,30.33
2023-04-20T10:57:32.226Z,28.20
2023-04-20T11:00:24.414Z,28.27
2023-04-20T11:03:13.075Z,27.63
2023-04-20T11:06:03.835Z,26.13
2023-04-20T11:08:52.463Z,29.37
2023-04-20T11:11:40.791Z,27.33
2023-04-20T11:14:29.710Z,25.23
2023-04-20T11:17:19.663Z,27.53
2023-04-20T11:20:11.052Z,25.03
2023-04-20T11:22:59.825Z,26.20
2023-04-20T11:25:52.663Z,24.33
2023-04-20T11:28:53.316Z,24.13
2023-04-20T11:31:43.542Z,25.30
2023-04-20T11:34:33.841Z,25.50
2023-04-20T11:37:22.350Z,24.37
2023-04-20T11:40:12.044Z,24.43
2023-04-20T11:43:01.059Z,23.00
2023-04-20T11:45:49.491Z,23.93
2023-04-20T11:48:37.938Z,25.87
2023-04-20T11:51:28.285Z,22.33
2023-04-20T11:54:16.646Z,23.33
2023-04-20T11:57:05.473Z,23.50
2023-04-20T11:59:53.825Z,22.93
2023-04-20T12:02:42.377Z,22.10
2023-04-20T12:05:30.950Z,20.93
2023-04-20T12:08:20.765Z,23.73
2023-04-20T12:11:09.062Z,23.43
2023-04-20T12:13:57.418Z,23.10
2023-04-20T12:16:45.997Z,23.00
2023-04-20T12:19:34.340Z,22.27
2023-04-20T12:22:22.672Z,23.27
2023-04-20T12:25:12.770Z,20.30
2023-04-20T12:28:05.703Z,23.50
2023-04-20T12:30:54.109Z,23.40
2023-04-20T12:33:43.479Z,21.50
2023-04-20T12:36:32.527Z,26.43
2023-04-20T12:39:20.933Z,25.20
2023-04-20T12:42:10.670Z,24.03
2023-04-20T12:44:58.980Z,23.93
2023-04-20T12:47:47.305Z,23.60
2023-04-20T12:50:35.738Z,21.83
2023-04-20T12:53:24.059Z,22.30
2023-04-20T12:56:12.415Z,24.03
2023-04-20T12:59:02.167Z,21.57
2023-04-20T13:01:50.615Z,23.43
2023-04-20T13:04:39.057Z,23.90
2023-04-20T13:07:28.046Z,22.83
2023-04-20T13:10:16.389Z,19.13
2023-04-20T13:13:05.923Z,20.73
2023-04-20T13:15:55.900Z,18.97
2023-04-20T13:18:44.527Z,19.83
2023-04-20T13:21:33.390Z,21.03
2023-04-20T13:24:21.680Z,19.10
2023-04-20T13:27:10.659Z,19.77
2023-04-20T13:29:59.512Z,20.27
2023-04-20T13:32:49.372Z,20.60
2023-04-20T13:35:38.258Z,21.90
2023-04-20T13:38:26.647Z,19.67
2023-04-20T13:41:15.096Z,19.23
2023-04-20T13:44:03.802Z,20.10
2023-04-20T13:46:52.147Z,20.07
2023-04-20T13:49:41.937Z,20.23
2023-04-20T13:52:30.480Z,19.37
2023-04-20T13:55:20.665Z,18.63
2023-04-20T13:58:09.082Z,20.17
2023-04-20T14:00:57.448Z,19.70
2023-04-20T14:03:45.945Z,19.17
2023-04-20T14:06:35.678Z,18.90
2023-04-20T14:09:24.042Z,18.90
2023-04-20T14:12:12.818Z,19.53
2023-04-20T14:15:01.251Z,20.60
2023-04-20T14:17:52.208Z,19.43
2023-04-20T14:20:40.906Z,19.60
2023-04-20T14:23:30.645Z,18.27
2023-04-20T14:26:19.641Z,20.80
2023-04-20T14:29:07.977Z,18.90
2023-04-20T14:31:56.357Z,18.97
2023-04-20T14:34:44.684Z,18.40
2023-04-20T14:37:33.160Z,19.90
2023-04-20T14:40:23.066Z,19.07
2023-04-20T14:43:11.423Z,19.47
2023-04-20T14:46:00.749Z,17.53
2023-04-20T14:48:49.152Z,18.47
2023-04-20T14:51:37.530Z,19.13
2023-04-20T14:54:25.892Z,18.83
2023-04-20T14:57:15.529Z,19.00
2023-04-20T15:00:05.830Z,18.37
2023-04-20T15:02:56.323Z,18.13
2023-04-20T15:05:44.920Z,20.00
2023-04-20T15:08:33.722Z,21.10
2023-04-20T15:11:22.084Z,17.90
2023-04-20T15:14:11.736Z,18.97
2023-04-20T15:17:00.206Z,20.90
2023-04-20T15:19:48.542Z,20.53
2023-04-20T15:22:37.496Z,19.07
2023-04-20T15:25:25.850Z,19.97
2023-04-20T15:28:14.325Z,19.00
2023-04-20T15:31:04.196Z,18.10
2023-04-20T15:33:52.510Z,19.20
2023-04-20T15:36:40.979Z,18.93
2023-04-20T15:39:29.312Z,20.10
2023-04-20T15:42:17.666Z,19.63
2023-04-20T15:45:07.187Z,18.93
2023-04-20T15:47:56.925Z,18.90
2023-04-20T15:50:45.343Z,18.80
2023-04-20T15:53:33.674Z,19.77
2023-04-20T15:56:23.321Z,19.73
2023-04-20T15:59:11.613Z,20.97
2023-04-20T16:02:00.088Z,19.77
2023-04-20T16:04:49.880Z,19.43
2023-04-20T16:07:56.853Z,20.50
2023-04-20T16:10:45.204Z,19.70
2023-04-20T16:13:33.587Z,20.30
2023-04-20T16:16:22.195Z,20.40
2023-04-20T16:19:11.461Z,19.27
2023-04-20T16:22:01.105Z,19.93
2023-04-20T16:24:49.565Z,21.10
2023-04-20T16:27:38.720Z,20.50
2023-04-20T16:30:27.152Z,21.73
2023-04-20T16:33:15.580Z,19.97
2023-04-20T16:36:04.038Z,21.80
2023-04-20T16:38:53.741Z,19.70
2023-04-20T16:41:42.258Z,20.73
2023-04-20T16:44:30.651Z,19.80
2023-04-20T16:47:18.978Z,20.23
2023-04-20T16:50:09.264Z,20.37
2023-04-20T16:52:57.622Z,20.47
2023-04-20T16:55:47.283Z,20.13
2023-04-20T16:58:35.625Z,19.87
2023-04-20T17:01:24.021Z,22.40
2023-04-20T17:04:12.591Z,21.13
2023-04-20T17:07:01.114Z,21.57
2023-04-20T17:09:49.483Z,20.60
2023-04-20T17:12:41.541Z,22.30
2023-04-20T17:15:30.071Z,20.40
2023-04-20T17:18:19.771Z,20.50
2023-04-20T17:21:08.148Z,22.57
2023-04-20T17:23:56.615Z,21.67
2023-04-20T17:26:46.329Z,20.63
2023-04-20T17:29:38.430Z,20.63
2023-04-20T17:32:27.012Z,23.60
2023-04-20T17:35:15.472Z,20.40
2023-04-20T17:38:03.875Z,24.77
2023-04-20T17:40:52.285Z,20.07
2023-04-20T17:43:41.027Z,20.87
2023-04-20T17:46:30.808Z,20.30
2023-04-20T17:49:19.170Z,20.37
2023-04-20T17:52:08.149Z,20.10
2023-04-20T17:54:56.508Z,20.60
2023-04-20T17:57:44.838Z,22.30
2023-04-20T18:00:33.201Z,19.77
2023-04-20T18:03:23.033Z,21.27
2023-04-20T18:06:11.518Z,20.17
2023-04-20T18:09:00.167Z,20.80
2023-04-20T18:11:48.532Z,20.00
2023-04-20T18:14:36.877Z,20.90
2023-04-20T18:17:25.334Z,19.80
2023-04-20T18:20:15.265Z,20.80
2023-04-20T18:23:03.623Z,20.20
2023-04-20T18:25:53.666Z,22.83
2023-04-20T18:28:42.116Z,20.00
2023-04-20T18:31:30.642Z,19.47
2023-04-20T18:34:19.280Z,20.50
2023-04-20T18:37:09.858Z,19.13
2023-04-20T18:39:58.554Z,19.20
2023-04-20T18:42:47.340Z,19.23
2023-04-20T18:45:35.936Z,20.20
2023-04-20T18:48:24.304Z,21.77
2023-04-20T18:51:12.713Z,19.40
2023-04-20T18:54:02.857Z,19.23
2023-04-20T18:56:51.850Z,20.40
2023-04-20T18:59:40.211Z,20.10
2023-04-20T19:02:28.795Z,22.47
2023-04-20T19:05:17.222Z,19.30
2023-04-20T19:08:05.703Z,19.03
2023-04-20T19:10:56.558Z,22.50
2023-04-20T19:13:45.407Z,20.80
2023-04-20T19:16:35.067Z,20.33
2023-04-20T19:19:23.711Z,22.63
2023-04-20T19:22:12.098Z,20.40
2023-04-20T19:25:00.579Z,20.17
2023-04-20T19:27:50.782Z,24.80
2023-04-20T19:30:39.476Z,18.77
2023-04-20T19:33:27.910Z,20.13
2023-04-20T19:36:16.230Z,19.37
2023-04-20T19:39:07.033Z,22.10
2023-04-20T19:41:55.681Z,20.40
2023-04-20T19:44:45.945Z,20.53
2023-04-20T19:47:34.267Z,28.10
2023-04-20T19:50:22.664Z,22.20
2023-04-20T19:53:11.045Z,25.20
2023-04-20T19:55:59.381Z,22.00
2023-04-20T19:58:48.070Z,20.73
2023-04-20T20:01:37.844Z,22.20
2023-04-20T20:04:27.520Z,22.60
2023-04-20T20:07:17.004Z,21.60
2023-04-20T20:10:06.466Z,23.93
2023-04-20T20:12:54.789Z,21.10
2023-04-20T20:15:44.575Z,23.43
2023-04-20T20:18:34.512Z,27.07
2023-04-20T20:21:22.934Z,31.50
2023-04-20T20:24:11.547Z,23.50
2023-04-20T20:26:59.959Z,21.33
2023-04-20T20:29:48.395Z,19.50
2023-04-20T20:32:36.790Z,21.60
2023-04-20T20:35:30.976Z,20.90
2023-04-20T20:38:20.986Z,22.23
2023-04-20T20:41:09.335Z,24.10
2023-04-20T20:43:58.048Z,21.50
2023-04-20T20:46:46.453Z,22.10
2023-04-20T20:49:35.108Z,25.60
2023-04-20T20:52:24.775Z,23.57
2023-04-20T20:55:13.333Z,27.43
2023-04-20T20:58:01.734Z,22.20
2023-04-20T21:00:50.107Z,23.90
2023-04-20T21:03:38.700Z,23.83
2023-04-20T21:06:27.335Z,22.63
2023-04-20T21:09:17.749Z,21.00
2023-04-20T21:12:07.145Z,23.13
2023-04-20T21:14:55.566Z,24.37
2023-04-20T21:17:44.068Z,23.90
2023-04-20T21:20:32.524Z,25.20
2023-04-20T21:23:20.925Z,23.73
2023-04-20T21:26:10.626Z,21.30
2023-04-20T21:28:59.125Z,22.80
2023-04-20T21:31:47.677Z,23.60
2023-04-20T21:34:36.049Z,23.70
2023-04-20T21:37:24.398Z,22.63
2023-04-20T21:40:13.442Z,27.50
2023-04-20T21:43:03.209Z,21.40
2023-04-20T21:45:51.886Z,24.83
2023-04-20T21:48:40.460Z,23.80
2023-04-20T21:51:28.839Z,23.70
2023-04-20T21:54:17.321Z,23.47
2023-04-20T21:57:05.789Z,24.20
2023-04-20T21:59:55.430Z,23.73
2023-04-20T22:02:44.637Z,22.97
2023-04-20T22:05:33.077Z,23.70
2023-04-20T22:08:22.256Z,23.93
2023-04-20T22:11:10.705Z,22.70
2023-04-20T22:13:59.044Z,25.00
2023-04-20T22:16:48.974Z,23.00
2023-04-20T22:19:37.357Z,22.33
2023-04-20T22:22:25.840Z,23.73
2023-04-20T22:25:14.263Z,22.17
2023-04-20T22:28:02.651Z,22.97
2023-04-20T22:30:51.047Z,23.70
2023-04-20T22:33:40.770Z,23.50
2023-04-20T22:36:29.169Z,23.77
2023-04-20T22:39:17.619Z,28.37
2023-04-20T22:42:06.274Z,23.53
2023-04-20T22:44:54.784Z,23.93
2023-04-20T22:47:43.191Z,23.33
2023-04-20T22:50:32.906Z,25.23
2023-04-20T22:53:21.669Z,23.30
2023-04-20T22:56:10.079Z,27.53
2023-04-20T22:58:58.427Z,25.23
2023-04-20T23:01:46.856Z,22.30
2023-04-20T23:04:37.628Z,27.30
2023-04-20T23:07:27.610Z,23.67
2023-04-20T23:10:17.088Z,24.47
2023-04-20T23:13:06.011Z,23.60
2023-04-20T23:15:54.443Z,24.73
2023-04-20T23:18:42.822Z,24.83
2023-04-20T23:21:31.245Z,26.80
2023-04-20T23:24:20.938Z,26.00
2023-04-20T23:27:09.268Z,24.30
2023-04-20T23:29:57.552Z,24.80
2023-04-20T23:32:45.997Z,24.83
2023-04-20T23:35:34.371Z,23.73
2023-04-20T23:38:23.180Z,23.53
2023-04-20T23:41:14.070Z,26.47
2023-04-20T23:44:02.454Z,25.33
2023-04-20T23:46:50.830Z,25.53
2023-04-20T23:49:39.230Z,25.13
2023-04-20T23:52:27.571Z,27.43
2023-04-20T23:55:15.940Z,25.83
2023-04-20T23:58:05.921Z,25.83
